sensor_id;sensor_type;location;lat;lon;timestamp;P1;durP1;ratioP1;P2;durP2;ratioP2
26303;SDS011;57113;48.680;8.890;2023-02-02T00:00:49;7.68;;;1.83;;
26303;SDS011;57113;48.680;8.890;2023-02-02T00:03:15;7.22;;;1.90;;
26303;SDS011;57113;48.680;8.890;2023-02-02T00:05:48;5.00;;;1.58;;
26303;SDS011;57113;48.680;8.890;2023-02-02T00:08:15;5.55;;;1.80;;
26303;SDS011;57113;48.680;8.890;2023-02-02T00:10:42;6.90;;;1.95;;
26303;SDS011;57113;48.680;8.890;2023-02-02T00:13:09;8.02;;;1.60;;
26303;SDS011;57113;48.680;8.890;2023-02-02T00:15:35;6.97;;;1.95;;
26303;SDS011;57113;48.680;8.890;2023-02-02T00:18:00;5.38;;;1.50;;
26303;SDS011;57113;48.680;8.890;2023-02-02T00:20:26;6.32;;;1.70;;
26303;SDS011;57113;48.680;8.890;2023-02-02T00:22:52;5.40;;;1.58;;
26303;SDS011;57113;48.680;8.890;2023-02-02T00:25:17;3.75;;;1.45;;
26303;SDS011;57113;48.680;8.890;2023-02-02T00:27:43;8.40;;;2.00;;
26303;SDS011;57113;48.680;8.890;2023-02-02T00:30:09;6.40;;;1.83;;
26303;SDS011;57113;48.680;8.890;2023-02-02T00:32:35;6.47;;;1.88;;
26303;SDS011;57113;48.680;8.890;2023-02-02T00:35:00;4.00;;;1.30;;
26303;SDS011;57113;48.680;8.890;2023-02-02T00:37:26;4.93;;;1.48;;
26303;SDS011;57113;48.680;8.890;2023-02-02T00:39:51;5.22;;;1.92;;
26303;SDS011;57113;48.680;8.890;2023-02-02T00:42:17;6.13;;;2.05;;
26303;SDS011;57113;48.680;8.890;2023-02-02T00:44:43;6.50;;;1.90;;
26303;SDS011;57113;48.680;8.890;2023-02-02T00:47:27;5.35;;;1.33;;
26303;SDS011;57113;48.680;8.890;2023-02-02T00:49:53;7.18;;;1.90;;
26303;SDS011;57113;48.680;8.890;2023-02-02T00:52:18;6.35;;;1.70;;
26303;SDS011;57113;48.680;8.890;2023-02-02T00:54:44;4.43;;;1.45;;
26303;SDS011;57113;48.680;8.890;2023-02-02T00:57:12;7.13;;;1.67;;
26303;SDS011;57113;48.680;8.890;2023-02-02T00:59:38;8.68;;;1.92;;
26303;SDS011;57113;48.680;8.890;2023-02-02T01:02:05;3.25;;;1.27;;
26303;SDS011;57113;48.680;8.890;2023-02-02T01:04:31;6.75;;;1.75;;
26303;SDS011;57113;48.680;8.890;2023-02-02T01:06:56;4.60;;;1.48;;
26303;SDS011;57113;48.680;8.890;2023-02-02T01:09:22;5.68;;;1.70;;
26303;SDS011;57113;48.680;8.890;2023-02-02T01:11:48;4.65;;;1.60;;
26303;SDS011;57113;48.680;8.890;2023-02-02T01:14:13;5.47;;;1.73;;
26303;SDS011;57113;48.680;8.890;2023-02-02T01:16:39;3.50;;;1.50;;
26303;SDS011;57113;48.680;8.890;2023-02-02T01:19:04;5.22;;;1.70;;
26303;SDS011;57113;48.680;8.890;2023-02-02T01:21:30;5.38;;;1.48;;
26303;SDS011;57113;48.680;8.890;2023-02-02T01:23:56;4.85;;;1.50;;
26303;SDS011;57113;48.680;8.890;2023-02-02T01:26:21;3.88;;;1.52;;
26303;SDS011;57113;48.680;8.890;2023-02-02T01:28:47;3.88;;;1.40;;
26303;SDS011;57113;48.680;8.890;2023-02-02T01:31:13;4.82;;;1.25;;
26303;SDS011;57113;48.680;8.890;2023-02-02T01:33:42;5.55;;;1.42;;
26303;SDS011;57113;48.680;8.890;2023-02-02T01:36:14;4.38;;;1.20;;
26303;SDS011;57113;48.680;8.890;2023-02-02T01:38:41;6.65;;;1.58;;
26303;SDS011;57113;48.680;8.890;2023-02-02T01:41:09;3.60;;;1.25;;
26303;SDS011;57113;48.680;8.890;2023-02-02T01:46:06;3.47;;;1.30;;
26303;SDS011;57113;48.680;8.890;2023-02-02T01:48:43;4.75;;;1.23;;
26303;SDS011;57113;48.680;8.890;2023-02-02T01:51:15;5.03;;;1.45;;
26303;SDS011;57113;48.680;8.890;2023-02-02T01:53:43;5.05;;;1.35;;
26303;SDS011;57113;48.680;8.890;2023-02-02T01:56:13;5.93;;;1.75;;
26303;SDS011;57113;48.680;8.890;2023-02-02T01:58:42;5.47;;;1.40;;
26303;SDS011;57113;48.680;8.890;2023-02-02T02:01:09;5.55;;;1.38;;
26303;SDS011;57113;48.680;8.890;2023-02-02T02:03:36;5.93;;;1.25;;
26303;SDS011;57113;48.680;8.890;2023-02-02T02:06:06;3.30;;;1.73;;
26303;SDS011;57113;48.680;8.890;2023-02-02T02:08:36;2.63;;;1.00;;
26303;SDS011;57113;48.680;8.890;2023-02-02T02:11:06;6.90;;;1.63;;
26303;SDS011;57113;48.680;8.890;2023-02-02T02:13:32;4.40;;;1.25;;
26303;SDS011;57113;48.680;8.890;2023-02-02T02:19:00;4.22;;;1.38;;
26303;SDS011;57113;48.680;8.890;2023-02-02T02:28:19;3.20;;;1.10;;
26303;SDS011;57113;48.680;8.890;2023-02-02T02:33:54;3.38;;;1.05;;
26303;SDS011;57113;48.680;8.890;2023-02-02T02:36:40;6.32;;;1.40;;
26303;SDS011;57113;48.680;8.890;2023-02-02T02:39:37;2.85;;;1.08;;
26303;SDS011;57113;48.680;8.890;2023-02-02T02:42:06;4.28;;;1.15;;
26303;SDS011;57113;48.680;8.890;2023-02-02T02:44:36;3.05;;;1.40;;
26303;SDS011;57113;48.680;8.890;2023-02-02T02:47:02;6.00;;;1.00;;
26303;SDS011;57113;48.680;8.890;2023-02-02T02:49:28;5.07;;;1.10;;
26303;SDS011;57113;48.680;8.890;2023-02-02T02:51:54;3.05;;;1.25;;
26303;SDS011;57113;48.680;8.890;2023-02-02T02:54:30;2.85;;;1.30;;
26303;SDS011;57113;48.680;8.890;2023-02-02T02:57:16;1.90;;;0.90;;
26303;SDS011;57113;48.680;8.890;2023-02-02T03:02:32;5.35;;;1.27;;
26303;SDS011;57113;48.680;8.890;2023-02-02T03:10:55;2.20;;;0.82;;
26303;SDS011;57113;48.680;8.890;2023-02-02T03:13:22;2.42;;;1.05;;
26303;SDS011;57113;48.680;8.890;2023-02-02T03:15:50;2.60;;;1.00;;
26303;SDS011;57113;48.680;8.890;2023-02-02T03:18:16;2.50;;;1.05;;
26303;SDS011;57113;48.680;8.890;2023-02-02T03:20:44;5.15;;;1.23;;
26303;SDS011;57113;48.680;8.890;2023-02-02T03:23:10;3.40;;;1.23;;
26303;SDS011;57113;48.680;8.890;2023-02-02T03:25:36;2.80;;;1.10;;
26303;SDS011;57113;48.680;8.890;2023-02-02T03:28:02;2.28;;;1.00;;
26303;SDS011;57113;48.680;8.890;2023-02-02T03:30:28;2.92;;;1.10;;
26303;SDS011;57113;48.680;8.890;2023-02-02T03:32:54;2.60;;;1.00;;
26303;SDS011;57113;48.680;8.890;2023-02-02T03:35:20;1.90;;;1.00;;
26303;SDS011;57113;48.680;8.890;2023-02-02T03:37:46;2.33;;;0.90;;
26303;SDS011;57113;48.680;8.890;2023-02-02T03:40:12;2.92;;;1.20;;
26303;SDS011;57113;48.680;8.890;2023-02-02T03:42:38;2.50;;;1.00;;
26303;SDS011;57113;48.680;8.890;2023-02-02T03:45:04;2.20;;;0.90;;
26303;SDS011;57113;48.680;8.890;2023-02-02T03:47:30;2.67;;;1.00;;
26303;SDS011;57113;48.680;8.890;2023-02-02T03:49:56;3.03;;;0.77;;
26303;SDS011;57113;48.680;8.890;2023-02-02T03:52:22;2.00;;;0.95;;
26303;SDS011;57113;48.680;8.890;2023-02-02T03:54:48;3.03;;;0.95;;
26303;SDS011;57113;48.680;8.890;2023-02-02T03:57:14;4.25;;;0.90;;
26303;SDS011;57113;48.680;8.890;2023-02-02T03:59:39;4.15;;;1.00;;
26303;SDS011;57113;48.680;8.890;2023-02-02T04:02:05;2.33;;;0.90;;
26303;SDS011;57113;48.680;8.890;2023-02-02T04:04:31;2.88;;;0.82;;
26303;SDS011;57113;48.680;8.890;2023-02-02T04:06:57;3.95;;;0.82;;
26303;SDS011;57113;48.680;8.890;2023-02-02T04:09:23;3.45;;;0.90;;
26303;SDS011;57113;48.680;8.890;2023-02-02T04:11:49;2.05;;;0.90;;
26303;SDS011;57113;48.680;8.890;2023-02-02T04:14:15;1.77;;;0.82;;
26303;SDS011;57113;48.680;8.890;2023-02-02T04:16:41;1.65;;;0.70;;
26303;SDS011;57113;48.680;8.890;2023-02-02T04:19:06;3.42;;;1.20;;
26303;SDS011;57113;48.680;8.890;2023-02-02T04:21:32;1.88;;;0.90;;
26303;SDS011;57113;48.680;8.890;2023-02-02T04:23:58;2.17;;;0.98;;
26303;SDS011;57113;48.680;8.890;2023-02-02T04:26:24;1.50;;;0.85;;
26303;SDS011;57113;48.680;8.890;2023-02-02T04:28:51;1.80;;;0.80;;
26303;SDS011;57113;48.680;8.890;2023-02-02T04:31:17;1.70;;;0.80;;
26303;SDS011;57113;48.680;8.890;2023-02-02T04:33:43;3.65;;;1.20;;
26303;SDS011;57113;48.680;8.890;2023-02-02T04:36:09;3.88;;;0.90;;
26303;SDS011;57113;48.680;8.890;2023-02-02T04:38:35;3.28;;;0.90;;
26303;SDS011;57113;48.680;8.890;2023-02-02T04:41:07;2.42;;;0.98;;
26303;SDS011;57113;48.680;8.890;2023-02-02T04:43:35;2.30;;;0.70;;
26303;SDS011;57113;48.680;8.890;2023-02-02T04:46:03;1.98;;;0.70;;
26303;SDS011;57113;48.680;8.890;2023-02-02T04:48:29;3.30;;;1.13;;
26303;SDS011;57113;48.680;8.890;2023-02-02T04:50:58;3.53;;;1.10;;
26303;SDS011;57113;48.680;8.890;2023-02-02T04:53:29;2.17;;;0.98;;
26303;SDS011;57113;48.680;8.890;2023-02-02T04:55:54;2.35;;;0.88;;
26303;SDS011;57113;48.680;8.890;2023-02-02T04:58:20;3.25;;;0.93;;
26303;SDS011;57113;48.680;8.890;2023-02-02T05:00:46;2.03;;;0.88;;
26303;SDS011;57113;48.680;8.890;2023-02-02T05:03:12;4.93;;;0.88;;
26303;SDS011;57113;48.680;8.890;2023-02-02T05:05:38;2.80;;;1.30;;
26303;SDS011;57113;48.680;8.890;2023-02-02T05:08:03;3.00;;;1.20;;
26303;SDS011;57113;48.680;8.890;2023-02-02T05:10:29;2.88;;;1.00;;
26303;SDS011;57113;48.680;8.890;2023-02-02T05:12:54;2.53;;;0.82;;
26303;SDS011;57113;48.680;8.890;2023-02-02T05:15:20;2.58;;;0.88;;
26303;SDS011;57113;48.680;8.890;2023-02-02T05:17:49;2.72;;;0.80;;
26303;SDS011;57113;48.680;8.890;2023-02-02T05:20:15;1.98;;;0.80;;
26303;SDS011;57113;48.680;8.890;2023-02-02T05:22:41;5.07;;;1.35;;
26303;SDS011;57113;48.680;8.890;2023-02-02T05:25:07;2.97;;;1.20;;
26303;SDS011;57113;48.680;8.890;2023-02-02T05:27:33;1.83;;;0.95;;
26303;SDS011;57113;48.680;8.890;2023-02-02T05:29:59;1.73;;;0.95;;
26303;SDS011;57113;48.680;8.890;2023-02-02T05:32:25;1.48;;;0.90;;
26303;SDS011;57113;48.680;8.890;2023-02-02T05:34:52;4.13;;;0.80;;
26303;SDS011;57113;48.680;8.890;2023-02-02T05:37:18;2.13;;;0.98;;
26303;SDS011;57113;48.680;8.890;2023-02-02T05:39:44;2.92;;;1.00;;
26303;SDS011;57113;48.680;8.890;2023-02-02T05:42:09;3.15;;;1.00;;
26303;SDS011;57113;48.680;8.890;2023-02-02T05:44:35;3.85;;;0.90;;
26303;SDS011;57113;48.680;8.890;2023-02-02T05:47:00;1.45;;;0.85;;
26303;SDS011;57113;48.680;8.890;2023-02-02T05:49:26;2.60;;;0.90;;
26303;SDS011;57113;48.680;8.890;2023-02-02T05:51:53;1.90;;;1.10;;
26303;SDS011;57113;48.680;8.890;2023-02-02T05:54:21;2.95;;;1.25;;
26303;SDS011;57113;48.680;8.890;2023-02-02T05:56:47;3.40;;;1.25;;
26303;SDS011;57113;48.680;8.890;2023-02-02T05:59:14;2.47;;;0.90;;
26303;SDS011;57113;48.680;8.890;2023-02-02T06:01:41;3.53;;;1.20;;
26303;SDS011;57113;48.680;8.890;2023-02-02T06:04:07;2.50;;;0.80;;
26303;SDS011;57113;48.680;8.890;2023-02-02T06:06:33;1.17;;;0.80;;
26303;SDS011;57113;48.680;8.890;2023-02-02T06:08:59;1.70;;;0.90;;
26303;SDS011;57113;48.680;8.890;2023-02-02T06:11:26;2.22;;;0.73;;
26303;SDS011;57113;48.680;8.890;2023-02-02T06:13:51;3.95;;;1.10;;
26303;SDS011;57113;48.680;8.890;2023-02-02T06:16:17;2.75;;;0.90;;
26303;SDS011;57113;48.680;8.890;2023-02-02T06:18:42;3.28;;;0.95;;
26303;SDS011;57113;48.680;8.890;2023-02-02T06:21:09;1.58;;;0.90;;
26303;SDS011;57113;48.680;8.890;2023-02-02T06:23:35;1.67;;;1.15;;
26303;SDS011;57113;48.680;8.890;2023-02-02T06:26:00;1.23;;;0.65;;
26303;SDS011;57113;48.680;8.890;2023-02-02T06:28:29;4.10;;;1.00;;
26303;SDS011;57113;48.680;8.890;2023-02-02T06:31:01;3.42;;;1.00;;
26303;SDS011;57113;48.680;8.890;2023-02-02T06:33:28;3.15;;;1.20;;
26303;SDS011;57113;48.680;8.890;2023-02-02T06:35:59;2.78;;;1.13;;
26303;SDS011;57113;48.680;8.890;2023-02-02T06:38:26;2.17;;;0.82;;
26303;SDS011;57113;48.680;8.890;2023-02-02T06:40:51;2.20;;;0.82;;
26303;SDS011;57113;48.680;8.890;2023-02-02T06:43:17;2.22;;;1.00;;
26303;SDS011;57113;48.680;8.890;2023-02-02T06:45:43;1.80;;;0.80;;
26303;SDS011;57113;48.680;8.890;2023-02-02T06:48:08;3.47;;;1.10;;
26303;SDS011;57113;48.680;8.890;2023-02-02T06:50:37;3.00;;;0.90;;
26303;SDS011;57113;48.680;8.890;2023-02-02T06:53:03;2.47;;;0.80;;
26303;SDS011;57113;48.680;8.890;2023-02-02T06:55:29;2.13;;;1.20;;
26303;SDS011;57113;48.680;8.890;2023-02-02T06:57:56;2.22;;;0.95;;
26303;SDS011;57113;48.680;8.890;2023-02-02T07:00:22;5.72;;;1.08;;
26303;SDS011;57113;48.680;8.890;2023-02-02T07:02:48;2.63;;;0.80;;
26303;SDS011;57113;48.680;8.890;2023-02-02T07:05:14;1.30;;;0.90;;
26303;SDS011;57113;48.680;8.890;2023-02-02T07:07:41;3.05;;;1.10;;
26303;SDS011;57113;48.680;8.890;2023-02-02T07:10:07;2.28;;;0.85;;
26303;SDS011;57113;48.680;8.890;2023-02-02T07:12:32;4.28;;;1.13;;
26303;SDS011;57113;48.680;8.890;2023-02-02T07:14:58;2.30;;;0.90;;
26303;SDS011;57113;48.680;8.890;2023-02-02T07:17:24;2.22;;;1.00;;
26303;SDS011;57113;48.680;8.890;2023-02-02T07:19:49;2.15;;;0.93;;
26303;SDS011;57113;48.680;8.890;2023-02-02T07:22:15;1.67;;;0.90;;
26303;SDS011;57113;48.680;8.890;2023-02-02T07:24:41;4.13;;;1.00;;
26303;SDS011;57113;48.680;8.890;2023-02-02T07:27:06;1.90;;;1.10;;
26303;SDS011;57113;48.680;8.890;2023-02-02T07:29:32;6.10;;;1.05;;
26303;SDS011;57113;48.680;8.890;2023-02-02T07:31:57;2.13;;;0.93;;
26303;SDS011;57113;48.680;8.890;2023-02-02T07:34:23;2.35;;;1.00;;
26303;SDS011;57113;48.680;8.890;2023-02-02T07:36:49;1.63;;;0.90;;
26303;SDS011;57113;48.680;8.890;2023-02-02T07:39:15;3.13;;;1.10;;
26303;SDS011;57113;48.680;8.890;2023-02-02T07:41:40;2.08;;;0.85;;
26303;SDS011;57113;48.680;8.890;2023-02-02T07:44:09;2.35;;;1.00;;
26303;SDS011;57113;48.680;8.890;2023-02-02T07:46:40;1.88;;;1.00;;
26303;SDS011;57113;48.680;8.890;2023-02-02T07:49:12;3.45;;;1.00;;
26303;SDS011;57113;48.680;8.890;2023-02-02T07:51:39;2.58;;;1.08;;
26303;SDS011;57113;48.680;8.890;2023-02-02T07:54:06;2.70;;;1.00;;
26303;SDS011;57113;48.680;8.890;2023-02-02T07:56:32;3.42;;;1.05;;
26303;SDS011;57113;48.680;8.890;2023-02-02T07:58:58;3.15;;;0.90;;
26303;SDS011;57113;48.680;8.890;2023-02-02T08:01:24;3.08;;;1.10;;
26303;SDS011;57113;48.680;8.890;2023-02-02T08:03:52;5.75;;;1.77;;
26303;SDS011;57113;48.680;8.890;2023-02-02T08:06:19;6.35;;;1.95;;
26303;SDS011;57113;48.680;8.890;2023-02-02T08:08:47;10.02;;;1.80;;
26303;SDS011;57113;48.680;8.890;2023-02-02T08:11:14;7.78;;;1.58;;
26303;SDS011;57113;48.680;8.890;2023-02-02T08:13:41;4.82;;;1.42;;
26303;SDS011;57113;48.680;8.890;2023-02-02T08:16:08;6.60;;;2.20;;
26303;SDS011;57113;48.680;8.890;2023-02-02T08:18:35;6.80;;;1.92;;
26303;SDS011;57113;48.680;8.890;2023-02-02T08:21:02;6.82;;;1.63;;
26303;SDS011;57113;48.680;8.890;2023-02-02T08:23:29;7.60;;;1.55;;
26303;SDS011;57113;48.680;8.890;2023-02-02T08:28:56;5.93;;;1.90;;
26303;SDS011;57113;48.680;8.890;2023-02-02T08:31:24;5.78;;;1.80;;
26303;SDS011;57113;48.680;8.890;2023-02-02T08:33:53;7.40;;;1.77;;
26303;SDS011;57113;48.680;8.890;2023-02-02T08:36:21;6.80;;;1.88;;
26303;SDS011;57113;48.680;8.890;2023-02-02T08:38:48;4.28;;;1.50;;
26303;SDS011;57113;48.680;8.890;2023-02-02T08:41:15;7.65;;;1.83;;
26303;SDS011;57113;48.680;8.890;2023-02-02T08:43:42;6.25;;;1.80;;
26303;SDS011;57113;48.680;8.890;2023-02-02T08:46:09;5.38;;;1.63;;
26303;SDS011;57113;48.680;8.890;2023-02-02T08:48:36;5.20;;;1.60;;
26303;SDS011;57113;48.680;8.890;2023-02-02T08:51:03;5.97;;;2.10;;
26303;SDS011;57113;48.680;8.890;2023-02-02T08:53:31;5.20;;;1.67;;
26303;SDS011;57113;48.680;8.890;2023-02-02T08:56:01;6.35;;;1.85;;
26303;SDS011;57113;48.680;8.890;2023-02-02T08:58:29;4.03;;;1.92;;
26303;SDS011;57113;48.680;8.890;2023-02-02T09:01:05;7.30;;;1.70;;
26303;SDS011;57113;48.680;8.890;2023-02-02T09:03:41;3.80;;;1.70;;
26303;SDS011;57113;48.680;8.890;2023-02-02T09:06:09;7.10;;;1.52;;
26303;SDS011;57113;48.680;8.890;2023-02-02T09:08:36;4.75;;;1.85;;
26303;SDS011;57113;48.680;8.890;2023-02-02T09:11:07;5.47;;;1.63;;
26303;SDS011;57113;48.680;8.890;2023-02-02T09:13:43;4.15;;;1.30;;
26303;SDS011;57113;48.680;8.890;2023-02-02T09:16:11;4.80;;;1.77;;
26303;SDS011;57113;48.680;8.890;2023-02-02T09:18:38;4.88;;;1.70;;
26303;SDS011;57113;48.680;8.890;2023-02-02T09:21:06;4.00;;;1.35;;
26303;SDS011;57113;48.680;8.890;2023-02-02T09:23:34;7.30;;;1.67;;
26303;SDS011;57113;48.680;8.890;2023-02-02T09:26:08;5.65;;;1.75;;
26303;SDS011;57113;48.680;8.890;2023-02-02T09:28:34;3.50;;;1.50;;
26303;SDS011;57113;48.680;8.890;2023-02-02T09:31:00;6.43;;;1.63;;
26303;SDS011;57113;48.680;8.890;2023-02-02T09:33:26;3.38;;;1.40;;
26303;SDS011;57113;48.680;8.890;2023-02-02T09:35:51;5.20;;;1.52;;
26303;SDS011;57113;48.680;8.890;2023-02-02T09:38:17;6.95;;;1.83;;
26303;SDS011;57113;48.680;8.890;2023-02-02T09:40:43;6.18;;;1.63;;
26303;SDS011;57113;48.680;8.890;2023-02-02T09:43:25;5.15;;;1.50;;
26303;SDS011;57113;48.680;8.890;2023-02-02T09:46:18;4.38;;;1.88;;
26303;SDS011;57113;48.680;8.890;2023-02-02T09:49:05;3.30;;;1.20;;
26303;SDS011;57113;48.680;8.890;2023-02-02T09:51:37;4.80;;;1.50;;
26303;SDS011;57113;48.680;8.890;2023-02-02T09:54:13;7.82;;;1.52;;
26303;SDS011;57113;48.680;8.890;2023-02-02T09:56:44;5.78;;;1.55;;
26303;SDS011;57113;48.680;8.890;2023-02-02T09:59:18;3.92;;;1.50;;
26303;SDS011;57113;48.680;8.890;2023-02-02T10:01:46;4.28;;;1.52;;
26303;SDS011;57113;48.680;8.890;2023-02-02T10:06:44;5.20;;;1.67;;
26303;SDS011;57113;48.680;8.890;2023-02-02T10:12:20;5.78;;;1.70;;
26303;SDS011;57113;48.680;8.890;2023-02-02T10:17:53;6.25;;;1.75;;
26303;SDS011;57113;48.680;8.890;2023-02-02T10:20:45;6.10;;;1.67;;
26303;SDS011;57113;48.680;8.890;2023-02-02T10:23:28;7.75;;;1.42;;
26303;SDS011;57113;48.680;8.890;2023-02-02T10:26:04;5.43;;;1.55;;
26303;SDS011;57113;48.680;8.890;2023-02-02T10:31:32;4.25;;;1.58;;
26303;SDS011;57113;48.680;8.890;2023-02-02T10:45:47;3.92;;;1.65;;
26303;SDS011;57113;48.680;8.890;2023-02-02T10:48:18;3.22;;;1.23;;
26303;SDS011;57113;48.680;8.890;2023-02-02T10:50:48;3.08;;;1.40;;
26303;SDS011;57113;48.680;8.890;2023-02-02T10:53:18;4.53;;;1.58;;
26303;SDS011;57113;48.680;8.890;2023-02-02T10:56:04;3.58;;;1.50;;
26303;SDS011;57113;48.680;8.890;2023-02-02T10:58:37;4.10;;;1.60;;
26303;SDS011;57113;48.680;8.890;2023-02-02T11:01:16;6.15;;;1.65;;
26303;SDS011;57113;48.680;8.890;2023-02-02T11:03:46;3.78;;;1.40;;
26303;SDS011;57113;48.680;8.890;2023-02-02T11:06:33;4.22;;;1.30;;
26303;SDS011;57113;48.680;8.890;2023-02-02T11:09:19;4.85;;;1.45;;
26303;SDS011;57113;48.680;8.890;2023-02-02T11:11:49;2.58;;;1.23;;
26303;SDS011;57113;48.680;8.890;2023-02-02T11:14:53;4.20;;;1.23;;
26303;SDS011;57113;48.680;8.890;2023-02-02T11:17:24;4.65;;;1.77;;
26303;SDS011;57113;48.680;8.890;2023-02-02T11:19:50;4.05;;;1.33;;
26303;SDS011;57113;48.680;8.890;2023-02-02T11:22:51;5.15;;;1.38;;
26303;SDS011;57113;48.680;8.890;2023-02-02T11:32:58;3.00;;;1.40;;
26303;SDS011;57113;48.680;8.890;2023-02-02T11:35:24;4.57;;;1.65;;
26303;SDS011;57113;48.680;8.890;2023-02-02T11:37:57;2.85;;;1.30;;
26303;SDS011;57113;48.680;8.890;2023-02-02T11:40:33;7.90;;;1.70;;
26303;SDS011;57113;48.680;8.890;2023-02-02T11:43:06;6.80;;;1.58;;
26303;SDS011;57113;48.680;8.890;2023-02-02T11:45:43;4.65;;;1.48;;
26303;SDS011;57113;48.680;8.890;2023-02-02T11:50:50;5.50;;;1.50;;
26303;SDS011;57113;48.680;8.890;2023-02-02T11:53:28;4.03;;;1.50;;
26303;SDS011;57113;48.680;8.890;2023-02-02T11:55:55;3.70;;;1.50;;
26303;SDS011;57113;48.680;8.890;2023-02-02T11:58:25;5.15;;;2.30;;
26303;SDS011;57113;48.680;8.890;2023-02-02T12:01:00;3.70;;;1.33;;
26303;SDS011;57113;48.680;8.890;2023-02-02T12:03:34;5.30;;;1.20;;
26303;SDS011;57113;48.680;8.890;2023-02-02T12:08:47;4.30;;;1.58;;
26303;SDS011;57113;48.680;8.890;2023-02-02T12:16:50;5.55;;;1.60;;
26303;SDS011;57113;48.680;8.890;2023-02-02T12:30:55;6.80;;;1.48;;
26303;SDS011;57113;48.680;8.890;2023-02-02T12:36:05;5.22;;;1.70;;
26303;SDS011;57113;48.680;8.890;2023-02-02T12:41:32;4.10;;;1.70;;
26303;SDS011;57113;48.680;8.890;2023-02-02T12:47:35;4.43;;;1.60;;
26303;SDS011;57113;48.680;8.890;2023-02-02T12:55:53;5.53;;;1.70;;
26303;SDS011;57113;48.680;8.890;2023-02-02T12:58:39;6.20;;;1.90;;
26303;SDS011;57113;48.680;8.890;2023-02-02T13:04:41;5.47;;;1.77;;
26303;SDS011;57113;48.680;8.890;2023-02-02T13:11:54;4.93;;;1.67;;
26303;SDS011;57113;48.680;8.890;2023-02-02T13:14:34;5.07;;;1.48;;
26303;SDS011;57113;48.680;8.890;2023-02-02T13:17:04;4.78;;;1.40;;
26303;SDS011;57113;48.680;8.890;2023-02-02T13:19:43;4.72;;;2.00;;
26303;SDS011;57113;48.680;8.890;2023-02-02T13:22:16;4.18;;;1.55;;
26303;SDS011;57113;48.680;8.890;2023-02-02T13:24:44;5.75;;;1.55;;
26303;SDS011;57113;48.680;8.890;2023-02-02T13:27:12;4.18;;;1.48;;
26303;SDS011;57113;48.680;8.890;2023-02-02T13:34:58;4.38;;;1.50;;
26303;SDS011;57113;48.680;8.890;2023-02-02T13:37:36;3.78;;;1.58;;
26303;SDS011;57113;48.680;8.890;2023-02-02T13:40:11;4.22;;;1.30;;
26303;SDS011;57113;48.680;8.890;2023-02-02T13:42:48;4.35;;;1.40;;
26303;SDS011;57113;48.680;8.890;2023-02-02T13:47:44;5.13;;;1.63;;
26303;SDS011;57113;48.680;8.890;2023-02-02T13:50:14;5.15;;;1.55;;
26303;SDS011;57113;48.680;8.890;2023-02-02T13:52:47;4.13;;;1.60;;
26303;SDS011;57113;48.680;8.890;2023-02-02T13:55:38;2.92;;;1.58;;
26303;SDS011;57113;48.680;8.890;2023-02-02T13:58:21;3.70;;;1.35;;
26303;SDS011;57113;48.680;8.890;2023-02-02T14:01:00;3.95;;;1.55;;
26303;SDS011;57113;48.680;8.890;2023-02-02T14:03:31;5.15;;;1.70;;
26303;SDS011;57113;48.680;8.890;2023-02-02T14:06:04;5.32;;;1.70;;
26303;SDS011;57113;48.680;8.890;2023-02-02T14:08:30;3.72;;;1.55;;
26303;SDS011;57113;48.680;8.890;2023-02-02T14:10:57;6.03;;;1.83;;
26303;SDS011;57113;48.680;8.890;2023-02-02T14:13:36;4.43;;;1.60;;
26303;SDS011;57113;48.680;8.890;2023-02-02T14:18:57;3.83;;;1.50;;
26303;SDS011;57113;48.680;8.890;2023-02-02T14:23:56;3.88;;;1.40;;
26303;SDS011;57113;48.680;8.890;2023-02-02T14:34:26;6.53;;;1.70;;
26303;SDS011;57113;48.680;8.890;2023-02-02T14:37:19;3.25;;;1.30;;
26303;SDS011;57113;48.680;8.890;2023-02-02T14:46:15;3.05;;;1.45;;
26303;SDS011;57113;48.680;8.890;2023-02-02T14:48:45;3.72;;;1.60;;
26303;SDS011;57113;48.680;8.890;2023-02-02T14:51:14;3.67;;;1.40;;
26303;SDS011;57113;48.680;8.890;2023-02-02T14:53:49;2.75;;;1.42;;
26303;SDS011;57113;48.680;8.890;2023-02-02T14:56:21;3.80;;;1.73;;
26303;SDS011;57113;48.680;8.890;2023-02-02T15:02:22;3.55;;;1.42;;
26303;SDS011;57113;48.680;8.890;2023-02-02T15:08:06;6.40;;;1.73;;
26303;SDS011;57113;48.680;8.890;2023-02-02T15:13:10;5.18;;;1.85;;
26303;SDS011;57113;48.680;8.890;2023-02-02T15:15:39;2.25;;;1.50;;
26303;SDS011;57113;48.680;8.890;2023-02-02T15:18:12;4.07;;;1.63;;
26303;SDS011;57113;48.680;8.890;2023-02-02T15:20:44;3.88;;;1.52;;
26303;SDS011;57113;48.680;8.890;2023-02-02T15:28:37;6.68;;;1.95;;
26303;SDS011;57113;48.680;8.890;2023-02-02T15:36:42;3.75;;;1.52;;
26303;SDS011;57113;48.680;8.890;2023-02-02T15:39:12;4.53;;;1.65;;
26303;SDS011;57113;48.680;8.890;2023-02-02T15:41:46;7.30;;;1.60;;
26303;SDS011;57113;48.680;8.890;2023-02-02T15:44:34;4.68;;;2.00;;
26303;SDS011;57113;48.680;8.890;2023-02-02T15:47:01;3.75;;;1.83;;
26303;SDS011;57113;48.680;8.890;2023-02-02T15:49:31;4.15;;;1.73;;
26303;SDS011;57113;48.680;8.890;2023-02-02T15:51:59;4.82;;;1.58;;
26303;SDS011;57113;48.680;8.890;2023-02-02T15:54:34;7.70;;;1.80;;
26303;SDS011;57113;48.680;8.890;2023-02-02T15:57:02;3.97;;;1.65;;
26303;SDS011;57113;48.680;8.890;2023-02-02T15:59:44;3.40;;;1.52;;
26303;SDS011;57113;48.680;8.890;2023-02-02T16:04:36;3.65;;;1.52;;
26303;SDS011;57113;48.680;8.890;2023-02-02T16:07:04;4.00;;;1.70;;
26303;SDS011;57113;48.680;8.890;2023-02-02T16:09:35;5.25;;;1.80;;
26303;SDS011;57113;48.680;8.890;2023-02-02T16:12:04;4.95;;;1.70;;
26303;SDS011;57113;48.680;8.890;2023-02-02T16:14:37;4.53;;;1.75;;
26303;SDS011;57113;48.680;8.890;2023-02-02T16:17:17;6.13;;;1.70;;
26303;SDS011;57113;48.680;8.890;2023-02-02T16:19:45;4.38;;;1.65;;
26303;SDS011;57113;48.680;8.890;2023-02-02T16:22:15;4.25;;;1.70;;
26303;SDS011;57113;48.680;8.890;2023-02-02T16:24:52;5.13;;;1.67;;
26303;SDS011;57113;48.680;8.890;2023-02-02T16:27:22;5.53;;;1.60;;
26303;SDS011;57113;48.680;8.890;2023-02-02T16:29:50;3.95;;;1.77;;
26303;SDS011;57113;48.680;8.890;2023-02-02T16:32:28;4.00;;;1.83;;
26303;SDS011;57113;48.680;8.890;2023-02-02T16:34:55;5.53;;;1.73;;
26303;SDS011;57113;48.680;8.890;2023-02-02T16:39:51;4.75;;;1.88;;
26303;SDS011;57113;48.680;8.890;2023-02-02T16:42:22;7.68;;;1.88;;
26303;SDS011;57113;48.680;8.890;2023-02-02T16:44:48;4.28;;;1.77;;
26303;SDS011;57113;48.680;8.890;2023-02-02T16:47:36;3.72;;;1.73;;
26303;SDS011;57113;48.680;8.890;2023-02-02T16:52:34;3.33;;;1.73;;
26303;SDS011;57113;48.680;8.890;2023-02-02T16:55:17;3.08;;;1.60;;
26303;SDS011;57113;48.680;8.890;2023-02-02T16:57:45;4.50;;;1.88;;
26303;SDS011;57113;48.680;8.890;2023-02-02T17:00:31;5.45;;;2.58;;
26303;SDS011;57113;48.680;8.890;2023-02-02T17:03:02;5.97;;;2.25;;
26303;SDS011;57113;48.680;8.890;2023-02-02T17:08:02;4.72;;;2.03;;
26303;SDS011;57113;48.680;8.890;2023-02-02T17:10:31;4.10;;;1.80;;
26303;SDS011;57113;48.680;8.890;2023-02-02T17:13:32;4.00;;;2.13;;
26303;SDS011;57113;48.680;8.890;2023-02-02T17:15:54;7.78;;;2.35;;
26303;SDS011;57113;48.680;8.890;2023-02-02T17:18:20;7.05;;;2.30;;
26303;SDS011;57113;48.680;8.890;2023-02-02T17:20:46;4.93;;;2.47;;
26303;SDS011;57113;48.680;8.890;2023-02-02T17:23:17;5.80;;;2.53;;
26303;SDS011;57113;48.680;8.890;2023-02-02T17:25:43;5.78;;;2.47;;
26303;SDS011;57113;48.680;8.890;2023-02-02T17:28:12;5.95;;;2.70;;
26303;SDS011;57113;48.680;8.890;2023-02-02T17:30:42;7.05;;;2.72;;
26303;SDS011;57113;48.680;8.890;2023-02-02T17:33:10;4.88;;;2.03;;
26303;SDS011;57113;48.680;8.890;2023-02-02T17:35:38;5.43;;;2.40;;
26303;SDS011;57113;48.680;8.890;2023-02-02T17:38:04;4.90;;;2.33;;
26303;SDS011;57113;48.680;8.890;2023-02-02T17:40:30;7.97;;;2.33;;
26303;SDS011;57113;48.680;8.890;2023-02-02T17:42:57;5.05;;;2.55;;